Time;durP1;ratioP1;P1;durP2;ratioP2;P2;SDS_P1;SDS_P2;PMS_P1;PMS_P2;Temp;Humidity;BMP_temperature;BMP_pressure;BME280_temperature;BME280_humidity;BME280_pressure;Samples;Min_cycle;Max_cycle;Signal;HPM_P1;HPM_P2
2022/05/01 00:00:18;;;;;;;;;;;;;;;12.32;45.72;102043.59;5027867;28;19952;-57
2022/05/01 00:02:44;;;;;;;;;;;;;;;12.24;46.00;102043.06;5028413;28;19918;-58
2022/05/01 00:05:09;;;;;;;;;;;;;;;12.27;46.01;102040.31;5027565;28;19976;-57
2022/05/01 00:07:35;;;;;;;;;;;;;;;12.34;45.91;102039.97;5028311;28;20405;-58
2022/05/01 00:10:00;;;;;;;;;;;;;;;12.41;45.68;102031.75;5014655;28;19913;-57
2022/05/01 00:12:26;;;;;;;;;;;;;;;12.46;45.72;102038.56;5027198;28;19919;-58
2022/05/01 00:14:51;;;;;;;;;;;;;;;12.49;45.57;102034.91;5022935;28;19917;-57
2022/05/01 00:17:16;;;;;;;;;;;;;;;12.50;45.64;102032.19;5026393;28;19913;-57
2022/05/01 00:19:42;;;;;;;;;;;;;;;12.50;45.42;102032.19;5021738;28;20564;-58
2022/05/01 00:22:07;;;;;;;;;;;;;;;12.52;45.55;102028.63;5026719;28;19916;-56
2022/05/01 00:24:32;;;;;;;;;;;;;;;12.54;45.53;102034.69;5009336;28;19917;-58
2022/05/01 00:26:59;;;;;;;;;;;;;;;12.55;45.55;102034.66;5027684;28;19932;-58
2022/05/01 00:29:24;;;;;;;;;;;;;;;12.59;45.42;102038.00;5029869;28;20257;-57
2022/05/01 00:31:50;;;;;;;;;;;;;;;12.60;45.37;102039.72;5023564;28;20702;-58
2022/05/01 00:36:59;;;;;;;;;;;;;;;12.55;45.39;102036.41;5025190;28;19920;-58
2022/05/01 00:39:24;;;;;;;;;;;;;;;12.55;45.43;102034.66;5026507;28;19920;-58
2022/05/01 00:41:49;;;;;;;;;;;;;;;12.50;45.54;102026.91;5028818;28;20349;-56
2022/05/01 00:44:16;;;;;;;;;;;;;;;12.46;45.47;102033.28;5024607;28;19980;-56
2022/05/01 00:46:42;;;;;;;;;;;;;;;12.43;45.50;102030.78;5023929;28;19917;-57
2022/05/01 00:49:12;;;;;;;;;;;;;;;12.37;45.65;102033.69;5028651;28;19917;-58
2022/05/01 00:51:43;;;;;;;;;;;;;;;12.32;45.54;102040.97;5028847;28;19925;-58
2022/05/01 00:54:09;;;;;;;;;;;;;;;12.29;45.59;102035.81;5025095;28;19921;-58
2022/05/01 00:56:41;;;;;;;;;;;;;;;12.27;45.67;102027.09;5023974;28;19927;-57
2022/05/01 00:59:07;;;;;;;;;;;;;;;12.26;45.81;102022.75;5025562;28;19917;-55
2022/05/01 01:01:33;;;;;;;;;;;;;;;12.27;45.57;102033.22;5027681;28;19940;-57
2022/05/01 01:03:58;;;;;;;;;;;;;;;12.28;45.62;102028.81;5025343;28;19924;-58
2022/05/01 01:06:24;;;;;;;;;;;;;;;12.30;45.55;102029.63;5028031;28;19925;-57
2022/05/01 01:08:49;;;;;;;;;;;;;;;12.29;45.68;102035.81;5022938;28;19975;-57
2022/05/01 01:11:14;;;;;;;;;;;;;;;12.26;45.67;102038.59;5019840;28;19917;-56
2022/05/01 01:13:40;;;;;;;;;;;;;;;12.24;45.65;102048.34;5027655;28;20046;-57
2022/05/01 01:16:09;;;;;;;;;;;;;;;12.18;45.66;102045.03;5025860;28;20242;-58
2022/05/01 01:18:34;;;;;;;;;;;;;;;12.13;45.67;102047.03;5024582;28;19937;-57
2022/05/01 01:21:00;;;;;;;;;;;;;;;12.11;45.95;102042.75;5025782;28;20288;-58
2022/05/01 01:23:25;;;;;;;;;;;;;;;12.09;45.88;102040.19;5027012;28;19913;-57
2022/05/01 01:25:50;;;;;;;;;;;;;;;12.08;45.95;102037.63;5028346;28;20372;-57
2022/05/01 01:28:16;;;;;;;;;;;;;;;12.05;45.92;102038.59;5022417;28;19922;-57
2022/05/01 01:33:29;;;;;;;;;;;;;;;12.06;45.93;102040.31;5025713;28;19964;-58
2022/05/01 01:35:55;;;;;;;;;;;;;;;12.09;45.70;102040.19;5026420;28;20369;-58
2022/05/01 01:38:21;;;;;;;;;;;;;;;12.07;45.70;102046.47;5025329;28;19921;-58
2022/05/01 01:40:52;;;;;;;;;;;;;;;12.08;45.70;102041.09;5027563;28;20416;-57
2022/05/01 01:43:19;;;;;;;;;;;;;;;12.09;45.82;102034.06;5028198;28;19999;-56
2022/05/01 01:45:46;;;;;;;;;;;;;;;12.07;45.68;102035.91;5024718;28;19924;-57
2022/05/01 01:48:13;;;;;;;;;;;;;;;12.02;45.88;102033.47;5025677;28;19913;-57
2022/05/01 01:50:38;;;;;;;;;;;;;;;11.98;45.94;102029.22;5021584;28;20300;-57
2022/05/01 01:53:04;;;;;;;;;;;;;;;11.92;45.97;102032.09;5015920;28;19913;-54
2022/05/01 01:55:31;;;;;;;;;;;;;;;11.86;46.21;102028.81;5004700;28;20519;-57
2022/05/01 01:57:57;;;;;;;;;;;;;;;11.84;46.32;102024.50;5019448;28;19920;-53
2022/05/01 02:00:22;;;;;;;;;;;;;;;11.80;46.32;102022.94;5020732;28;19924;-54
2022/05/01 02:02:47;;;;;;;;;;;;;;;11.80;46.24;102030.88;5021616;28;19917;-54
2022/05/01 02:05:13;;;;;;;;;;;;;;;11.80;46.33;102034.34;5018596;28;19917;-55
2022/05/01 02:07:39;;;;;;;;;;;;;;;11.74;46.51;102024.91;5022729;28;19924;-53
2022/05/01 02:10:05;;;;;;;;;;;;;;;11.69;46.55;102024.25;5019977;28;20019;-55
2022/05/01 02:12:31;;;;;;;;;;;;;;;11.63;46.55;102023.63;5023612;28;20058;-55
2022/05/01 02:14:56;;;;;;;;;;;;;;;11.54;46.71;102020.47;5021055;28;20304;-54
2022/05/01 02:17:21;;;;;;;;;;;;;;;11.44;46.99;102011.22;5020079;28;19924;-55
2022/05/01 02:19:47;;;;;;;;;;;;;;;11.38;47.02;102017.59;5023495;28;19960;-54
2022/05/01 02:22:14;;;;;;;;;;;;;;;11.38;47.19;102022.03;5021487;28;19990;-56
2022/05/01 02:24:39;;;;;;;;;;;;;;;11.31;47.09;102024.06;5021185;28;20086;-54
2022/05/01 02:27:05;;;;;;;;;;;;;;;11.21;47.09;102023.56;5019676;28;20376;-54
2022/05/01 02:29:30;;;;;;;;;;;;;;;11.11;47.53;102011.69;5021462;28;19923;-56
2022/05/01 02:31:55;;;;;;;;;;;;;;;11.05;47.64;102015.38;5004493;28;20563;-55
2022/05/01 02:34:22;;;;;;;;;;;;;;;10.98;47.74;102009.50;5023640;28;19925;-55
2022/05/01 02:36:48;;;;;;;;;;;;;;;11.03;47.76;102017.25;5017973;28;20000;-55
2022/05/01 02:39:13;;;;;;;;;;;;;;;11.11;47.60;102009.91;5023322;28;19952;-53
2022/05/01 02:41:39;;;;;;;;;;;;;;;11.16;47.66;102006.22;5023355;28;20292;-53
2022/05/01 02:44:05;;;;;;;;;;;;;;;11.16;47.68;102012.34;5021341;28;19921;-57
2022/05/01 02:46:31;;;;;;;;;;;;;;;11.17;47.51;102014.06;5021742;28;19936;-51
2022/05/01 02:48:56;;;;;;;;;;;;;;;11.24;47.69;102012.03;5021726;28;19920;-54
2022/05/01 02:51:22;;;;;;;;;;;;;;;11.30;47.79;102014.44;5022310;28;19917;-54
2022/05/01 02:53:47;;;;;;;;;;;;;;;11.27;47.58;102017.19;5028868;28;19921;-56
2022/05/01 02:56:13;;;;;;;;;;;;;;;11.17;47.52;102021.97;5030179;28;20327;-53
2022/05/01 02:58:38;;;;;;;;;;;;;;;11.06;47.71;102027.66;5028640;28;20292;-53
2022/05/01 03:01:03;;;;;;;;;;;;;;;10.88;48.12;102031.03;5031175;28;19939;-54
2022/05/01 03:03:29;;;;;;;;;;;;;;;10.68;48.50;102030.84;5032229;28;20281;-55
2022/05/01 03:05:54;;;;;;;;;;;;;;;10.47;49.22;102031.66;5031763;28;19923;-56
2022/05/01 03:08:20;;;;;;;;;;;;;;;10.29;49.39;102020.84;5030334;28;19921;-58
2022/05/01 03:10:46;;;;;;;;;;;;;;;10.16;49.78;102023.03;5030178;28;19931;-56
2022/05/01 03:13:11;;;;;;;;;;;;;;;10.02;50.18;102027.94;5014327;28;19921;-57
2022/05/01 03:15:37;;;;;;;;;;;;;;;9.88;50.42;102026.63;5033643;28;20478;-55
2022/05/01 03:23:30;;;;;;;;;;;;;;;9.69;50.78;102030.78;5033566;28;19924;-57
2022/05/01 03:25:55;;;;;;;;;;;;;;;9.64;50.94;102027.47;5030117;28;20288;-56
2022/05/01 03:28:21;;;;;;;;;;;;;;;9.56;51.18;102022.47;5027884;28;19917;-58
2022/05/01 03:30:46;;;;;;;;;;;;;;;9.42;51.81;102018.53;5032170;28;19913;-58
2022/05/01 03:33:11;;;;;;;;;;;;;;;9.32;52.35;102026.75;5031002;28;19917;-58
2022/05/01 03:35:36;;;;;;;;;;;;;;;9.22;52.23;102026.19;5033066;28;20509;-57
2022/05/01 03:38:03;;;;;;;;;;;;;;;9.21;52.03;102021.84;5031486;28;19952;-57
2022/05/01 03:40:28;;;;;;;;;;;;;;;9.29;52.04;102022.47;5030433;28;19924;-57
2022/05/01 03:42:54;;;;;;;;;;;;;;;9.35;51.77;102030.13;5029229;28;19917;-57
2022/05/01 03:45:19;;;;;;;;;;;;;;;9.38;52.00;102027.41;5001676;28;20391;-57
2022/05/01 03:47:45;;;;;;;;;;;;;;;9.48;51.65;102033.25;5032131;28;19956;-55
2022/05/01 03:50:10;;;;;;;;;;;;;;;9.59;51.46;102030.25;5030692;28;20381;-57
2022/05/01 03:52:35;;;;;;;;;;;;;;;9.69;51.16;102028.16;5029646;28;20368;-57
2022/05/01 03:55:00;;;;;;;;;;;;;;;9.77;51.31;102028.78;5029545;28;19920;-57
2022/05/01 03:57:26;;;;;;;;;;;;;;;9.82;51.11;102031.25;5028809;28;20007;-56
2022/05/01 03:59:51;;;;;;;;;;;;;;;9.95;50.89;102035.19;5026342;28;19921;-57
2022/05/01 04:02:17;;;;;;;;;;;;;;;10.11;50.48;102032.88;5022643;28;19964;-61
2022/05/01 04:04:44;;;;;;;;;;;;;;;10.22;50.52;102030.72;5023658;28;19921;-58
2022/05/01 04:07:09;;;;;;;;;;;;;;;10.34;50.29;102026.81;5025710;28;19924;-57
2022/05/01 04:09:36;;;;;;;;;;;;;;;10.43;49.94;102027.41;5027622;28;19913;-58
2022/05/01 04:12:02;;;;;;;;;;;;;;;10.49;50.02;102032.47;5022921;28;19967;-57
2022/05/01 04:14:28;;;;;;;;;;;;;;;10.55;49.79;102037.47;5008736;28;19929;-57
2022/05/01 04:16:56;;;;;;;;;;;;;;;10.61;49.78;102029.38;5010837;28;19917;-57
2022/05/01 04:19:22;;;;;;;;;;;;;;;10.66;49.63;102034.44;5029384;28;19971;-56
2022/05/01 04:21:47;;;;;;;;;;;;;;;10.69;49.60;102021.19;5023076;28;19913;-56
2022/05/01 04:24:12;;;;;;;;;;;;;;;10.71;49.62;102026.38;5022148;28;19932;-57
2022/05/01 04:26:37;;;;;;;;;;;;;;;10.69;49.66;102029.06;5022019;28;20011;-57
2022/05/01 04:31:46;;;;;;;;;;;;;;;10.82;49.57;102040.84;5026312;28;19971;-57
2022/05/01 04:34:12;;;;;;;;;;;;;;;10.87;49.37;102043.31;5025936;28;19964;-57
2022/05/01 04:36:40;;;;;;;;;;;;;;;10.87;49.48;102038.03;5026596;28;19917;-56
2022/05/01 04:39:05;;;;;;;;;;;;;;;10.87;49.41;102038.03;5029065;28;20003;-57
2022/05/01 04:41:31;;;;;;;;;;;;;;;10.82;49.46;102045.25;5021925;28;20019;-56
2022/05/01 04:43:56;;;;;;;;;;;;;;;10.75;49.46;102041.16;5028558;28;20011;-56
2022/05/01 04:46:22;;;;;;;;;;;;;;;10.65;49.62;102038.88;5025658;28;19996;-58
2022/05/01 04:48:47;;;;;;;;;;;;;;;10.60;49.76;102042.56;5026549;28;20339;-57
2022/05/01 04:51:12;;;;;;;;;;;;;;;10.61;49.79;102041.66;5017893;28;19932;-58
2022/05/01 04:53:38;;;;;;;;;;;;;;;10.60;49.99;102040.81;5026554;28;20326;-57
2022/05/01 04:58:47;;;;;;;;;;;;;;;10.67;49.85;102042.28;5024184;28;19928;-55
2022/05/01 05:01:13;;;;;;;;;;;;;;;10.73;49.72;102040.34;5024518;28;19917;-57
2022/05/01 05:03:38;;;;;;;;;;;;;;;10.77;49.70;102048.06;5023415;28;19917;-57
2022/05/01 05:06:04;;;;;;;;;;;;;;;10.83;49.51;102050.47;5024086;28;20287;-57
2022/05/01 05:11:13;;;;;;;;;;;;;;;10.92;49.31;102051.91;5026956;28;19923;-57
2022/05/01 05:13:39;;;;;;;;;;;;;;;10.91;49.46;102060.72;5020491;28;20023;-56
2022/05/01 05:16:12;;;;;;;;;;;;;;;10.87;49.60;102061.75;5023971;28;19940;-56
2022/05/01 05:18:39;;;;;;;;;;;;;;;10.81;49.74;102056.72;5023562;28;19963;-58
2022/05/01 05:21:05;;;;;;;;;;;;;;;10.80;49.88;102057.63;5023043;28;19999;-58
2022/05/01 05:23:30;;;;;;;;;;;;;;;10.84;49.97;102064.47;5023297;28;20447;-56
2022/05/01 05:25:55;;;;;;;;;;;;;;;10.85;49.93;102070.63;5024152;28;19916;-57
2022/05/01 05:28:21;;;;;;;;;;;;;;;10.84;50.12;102061.84;5022446;28;19960;-57
2022/05/01 05:30:47;;;;;;;;;;;;;;;10.86;49.83;102070.56;5022888;28;19975;-57
2022/05/01 05:33:12;;;;;;;;;;;;;;;10.88;49.90;102065.25;5025586;28;19935;-57
2022/05/01 05:35:38;;;;;;;;;;;;;;;10.91;50.14;102059.84;5027574;28;19917;-57
2022/05/01 05:38:03;;;;;;;;;;;;;;;10.97;49.85;102062.25;5024667;28;19917;-57
2022/05/01 05:40:28;;;;;;;;;;;;;;;11.06;49.88;102063.69;5025789;28;19921;-55
2022/05/01 05:42:54;;;;;;;;;;;;;;;11.09;49.85;102059.16;5022830;28;20437;-57
2022/05/01 05:45:19;;;;;;;;;;;;;;;11.12;49.81;102066.06;5019928;28;19971;-56
2022/05/01 05:47:44;;;;;;;;;;;;;;;11.16;49.92;102058.91;5024119;28;19918;-58
2022/05/01 05:50:10;;;;;;;;;;;;;;;11.21;49.91;102063.09;5024129;28;19925;-57
2022/05/01 05:52:35;;;;;;;;;;;;;;;11.25;49.93;102064.69;5024954;28;19981;-57
2022/05/01 05:55:01;;;;;;;;;;;;;;;11.24;50.13;102065.59;5020435;28;19932;-57
2022/05/01 05:57:26;;;;;;;;;;;;;;;11.23;50.06;102066.53;5023298;28;20288;-58
2022/05/01 05:59:52;;;;;;;;;;;;;;;11.25;50.13;102062.06;5026114;28;19928;-56
2022/05/01 06:02:17;;;;;;;;;;;;;;;11.30;50.14;102069.78;5024683;28;19928;-57
2022/05/01 06:04:42;;;;;;;;;;;;;;;11.32;49.97;102075.84;5023377;28;19917;-57
2022/05/01 06:07:08;;;;;;;;;;;;;;;11.33;50.26;102077.56;5023616;28;19924;-57
2022/05/01 06:09:34;;;;;;;;;;;;;;;11.34;50.09;102076.63;5017452;28;20397;-56
2022/05/01 06:11:59;;;;;;;;;;;;;;;11.38;50.34;102085.28;5024149;28;19924;-57
2022/05/01 06:14:24;;;;;;;;;;;;;;;11.37;50.39;102079.13;5024627;28;20292;-58
2022/05/01 06:16:50;;;;;;;;;;;;;;;11.40;50.34;102079.00;5007134;28;19928;-57
2022/05/01 06:19:15;;;;;;;;;;;;;;;11.47;50.21;102074.34;5021353;28;20372;-57
2022/05/01 06:21:40;;;;;;;;;;;;;;;11.55;50.18;102076.69;5028381;28;19925;-57
2022/05/01 06:24:08;;;;;;;;;;;;;;;11.62;50.02;102080.81;5023528;28;19913;-58
2022/05/01 06:26:33;;;;;;;;;;;;;;;11.71;49.97;102080.41;5022520;28;19924;-57
2022/05/01 06:28:59;;;;;;;;;;;;;;;11.82;50.09;102085.25;5026629;28;19917;-57
2022/05/01 06:31:25;;;;;;;;;;;;;;;11.93;49.83;102086.56;5023108;28;19921;-55
2022/05/01 06:33:50;;;;;;;;;;;;;;;12.03;49.66;102082.63;5025434;28;19920;-57
2022/05/01 06:36:16;;;;;;;;;;;;;;;12.12;49.58;102084.91;5022694;28;20327;-58
2022/05/01 06:38:43;;;;;;;;;;;;;;;12.22;49.57;102090.66;5024176;28;20009;-57
2022/05/01 06:41:08;;;;;;;;;;;;;;;12.31;49.40;102086.75;5024905;28;21418;-57
2022/05/01 06:43:34;;;;;;;;;;;;;;;12.37;49.29;102091.75;5022031;28;20353;-57
2022/05/01 06:45:59;;;;;;;;;;;;;;;12.43;49.31;102096.78;5022025;28;19951;-57
2022/05/01 06:48:24;;;;;;;;;;;;;;;12.47;49.13;102087.81;5027695;28;19916;-57
2022/05/01 06:50:50;;;;;;;;;;;;;;;12.48;49.13;102089.47;5023690;28;20024;-56
2022/05/01 06:53:15;;;;;;;;;;;;;;;12.46;49.04;102091.38;5023685;28;20380;-58
2022/05/01 06:55:41;;;;;;;;;;;;;;;12.50;48.79;102092.91;5021606;28;19924;-58
2022/05/01 06:58:06;;;;;;;;;;;;;;;12.55;48.44;102090.09;5021010;28;19927;-56
2022/05/01 07:00:32;;;;;;;;;;;;;;;12.60;48.27;102092.53;5026890;28;19916;-57
2022/05/01 07:02:57;;;;;;;;;;;;;;;12.60;48.18;102092.53;5023380;28;20316;-58
2022/05/01 07:05:23;;;;;;;;;;;;;;;12.63;48.02;102092.38;5024990;28;19917;-58
2022/05/01 07:07:50;;;;;;;;;;;;;;;12.60;47.96;102093.38;5024963;28;19921;-57
2022/05/01 07:10:15;;;;;;;;;;;;;;;12.61;47.81;102089.81;5019818;28;19917;-56
2022/05/01 07:12:41;;;;;;;;;;;;;;;12.60;47.83;102093.38;5023322;28;19924;-58
2022/05/01 07:15:06;;;;;;;;;;;;;;;12.64;47.95;102092.31;5018891;28;20333;-57
2022/05/01 07:17:32;;;;;;;;;;;;;;;12.71;47.68;102095.53;5027788;28;20328;-57
2022/05/01 07:19:57;;;;;;;;;;;;;;;12.74;47.57;102090.13;5024401;28;20012;-57
2022/05/01 07:22:22;;;;;;;;;;;;;;;12.72;47.21;102089.34;5017163;28;19925;-56
2022/05/01 07:24:48;;;;;;;;;;;;;;;12.70;46.91;102088.53;5015281;28;19913;-56
2022/05/01 07:27:13;;;;;;;;;;;;;;;12.72;46.95;102078.75;5021663;28;19917;-57
2022/05/01 07:29:39;;;;;;;;;;;;;;;12.77;47.00;102087.34;5022904;28;19931;-53
2022/05/01 07:32:04;;;;;;;;;;;;;;;12.83;46.88;102087.97;5017407;28;19913;-57
2022/05/01 07:34:29;;;;;;;;;;;;;;;12.89;46.79;102077.97;5021975;28;19920;-54
2022/05/01 07:36:55;;;;;;;;;;;;;;;12.97;46.62;102085.56;5021406;28;19917;-53
2022/05/01 07:39:20;;;;;;;;;;;;;;;13.03;46.56;102074.72;5023466;28;20032;-56
2022/05/01 07:41:45;;;;;;;;;;;;;;;13.05;46.42;102077.25;5004947;28;19924;-55
2022/05/01 07:44:14;;;;;;;;;;;;;;;13.09;46.37;102076.19;5025646;28;19975;-56
2022/05/01 07:46:40;;;;;;;;;;;;;;;13.09;46.60;102079.69;5022537;28;19982;-55
2022/05/01 07:49:06;;;;;;;;;;;;;;;13.17;46.32;102075.84;5021911;28;19912;-55
2022/05/01 07:51:31;;;;;;;;;;;;;;;13.26;46.39;102076.25;5029214;28;20479;-55
2022/05/01 07:53:58;;;;;;;;;;;;;;;13.38;46.14;102085.41;5022088;28;20003;-55
2022/05/01 07:56:24;;;;;;;;;;;;;;;13.51;46.14;102068.97;5020344;28;19921;-56
2022/05/01 07:58:49;;;;;;;;;;;;;;;13.62;46.08;102079.00;5028065;28;20277;-52
2022/05/01 08:01:14;;;;;;;;;;;;;;;13.76;46.00;102078.31;5026279;28;19953;-53
2022/05/01 08:06:23;;;;;;;;;;;;;;;13.96;45.17;102083.47;5026853;28;19944;-57
2022/05/01 08:08:49;;;;;;;;;;;;;;;14.02;44.79;102079.66;5021270;28;20296;-57
2022/05/01 08:11:14;;;;;;;;;;;;;;;14.03;44.37;102082.22;5018899;28;19968;-57
2022/05/01 08:13:40;;;;;;;;;;;;;;;14.08;44.29;102078.47;5027525;28;21634;-55
2022/05/01 08:16:05;;;;;;;;;;;;;;;14.12;44.31;102074.75;5020763;28;19920;-57
2022/05/01 08:21:16;;;;;;;;;;;;;;;14.31;43.88;102072.00;5019082;28;20018;-57
2022/05/01 08:23:41;;;;;;;;;;;;;;;14.40;43.68;102081.25;5018364;28;20004;-56
2022/05/01 08:26:08;;;;;;;;;;;;;;;14.43;43.01;102079.28;5016200;28;20003;-50
2022/05/01 08:28:34;;;;;;;;;;;;;;;14.41;42.79;102080.31;5021485;28;19966;-56
2022/05/01 08:31:00;;;;;;;;;;;;;;;14.43;42.70;102079.28;5020683;28;19920;-51
2022/05/01 08:33:26;;;;;;;;;;;;;;;14.46;41.76;102088.84;5021673;28;19917;-54
2022/05/01 08:35:51;;;;;;;;;;;;;;;14.44;41.88;102088.09;5019093;28;19917;-49
2022/05/01 08:38:16;;;;;;;;;;;;;;;14.42;41.29;102082.88;5017971;28;20337;-53
2022/05/01 08:40:44;;;;;;;;;;;;;;;14.36;40.86;102091.16;5018510;28;19940;-49
2022/05/01 08:43:10;;;;;;;;;;;;;;;14.32;41.45;102079.00;5028046;28;20281;-49
2022/05/01 08:45:45;;;;;;;;;;;;;;;14.38;41.96;102081.31;5020222;28;19968;-54
2022/05/01 08:48:18;;;;;;;;;;;;;;;14.47;42.04;102079.97;5016617;28;19917;-54
2022/05/01 08:50:44;;;;;;;;;;;;;;;14.50;41.68;102089.56;5019249;28;19917;-53
2022/05/01 08:53:10;;;;;;;;;;;;;;;14.52;41.91;102072.66;5015921;28;19913;-54
2022/05/01 08:55:38;;;;;;;;;;;;;;;14.53;41.67;102079.66;5013868;28;20015;-53
2022/05/01 08:58:04;;;;;;;;;;;;;;;14.50;41.84;102089.56;5010106;28;19912;-53
2022/05/01 09:00:30;;;;;;;;;;;;;;;14.50;41.92;102087.75;4992194;28;19936;-53
2022/05/01 09:02:56;;;;;;;;;;;;;;;14.49;42.08;102094.00;4999737;28;21873;-52
2022/05/01 09:05:21;;;;;;;;;;;;;;;14.55;42.13;102088.38;5015204;28;20407;-50
2022/05/01 09:07:46;;;;;;;;;;;;;;;14.61;41.81;102093.34;5020178;28;20444;-49
2022/05/01 09:10:13;;;;;;;;;;;;;;;14.64;41.50;102093.19;5007564;28;19932;-53
2022/05/01 09:12:52;;;;;;;;;;;;;;;14.62;41.23;102087.09;5019512;28;19913;-49
2022/05/01 09:15:29;;;;;;;;;;;;;;;14.64;41.30;102093.19;5011144;28;19921;-54
2022/05/01 09:18:05;;;;;;;;;;;;;;;14.72;41.11;102095.44;5014745;28;19917;-50
2022/05/01 09:20:31;;;;;;;;;;;;;;;14.73;40.41;102091.03;5015250;28;19925;-54
2022/05/01 09:22:58;;;;;;;;;;;;;;;14.68;40.11;102087.75;5014981;28;19943;-54
2022/05/01 09:25:24;;;;;;;;;;;;;;;14.70;40.10;102091.19;5019786;28;19939;-54
2022/05/01 09:27:56;;;;;;;;;;;;;;;14.71;40.50;102087.59;5020845;28;20070;-50
2022/05/01 09:30:22;;;;;;;;;;;;;;;14.76;40.16;102090.84;5027520;28;19917;-52
2022/05/01 09:32:48;;;;;;;;;;;;;;;14.81;39.93;102099.41;5017663;28;19928;-52
2022/05/01 09:35:15;;;;;;;;;;;;;;;14.86;39.69;102091.19;5014432;28;19917;-53
2022/05/01 09:37:40;;;;;;;;;;;;;;;14.92;39.98;102085.56;5015558;28;20455;-52
2022/05/01 09:40:06;;;;;;;;;;;;;;;14.97;39.27;102087.97;5011551;28;20027;-55
2022/05/01 09:42:35;;;;;;;;;;;;;;;15.02;39.34;102088.56;5008648;28;21077;-55
2022/05/01 09:45:14;;;;;;;;;;;;;;;15.12;39.40;102083.63;5012442;28;20344;-54
2022/05/01 09:47:43;;;;;;;;;;;;;;;15.22;39.19;102080.34;5015666;28;19912;-54
2022/05/01 09:50:09;;;;;;;;;;;;;;;15.29;38.42;102072.91;5018130;28;19917;-53
2022/05/01 09:52:54;;;;;;;;;;;;;;;15.35;38.45;102075.22;5014104;28;20099;-52
2022/05/01 09:55:19;;;;;;;;;;;;;;;15.44;38.25;102071.19;5020080;28;19920;-49
2022/05/01 09:57:44;;;;;;;;;;;;;;;15.52;38.14;102071.59;5029083;28;19913;-52
2022/05/01 10:00:10;;;;;;;;;;;;;;;15.67;37.14;102079.59;5017608;28;19921;-52
2022/05/01 10:02:36;;;;;;;;;;;;;;;15.74;37.11;102077.44;5015914;28;20599;-56
2022/05/01 10:05:06;;;;;;;;;;;;;;;15.76;36.83;102068.47;5019131;28;19940;-55
2022/05/01 10:07:36;;;;;;;;;;;;;;;15.81;37.25;102062.88;5017639;28;20303;-54
2022/05/01 10:10:04;;;;;;;;;;;;;;;15.90;37.24;102072.13;5015991;28;19921;-53
2022/05/01 10:12:32;;;;;;;;;;;;;;;15.97;36.61;102073.47;5017063;28;19924;-51
2022/05/01 10:14:58;;;;;;;;;;;;;;;15.95;35.68;102065.59;5000014;28;20381;-52
2022/05/01 10:17:24;;;;;;;;;;;;;;;15.87;36.08;102073.19;5016674;28;19967;-56
2022/05/01 10:19:49;;;;;;;;;;;;;;;15.81;35.86;102068.19;5012330;28;19929;-54
2022/05/01 10:22:17;;;;;;;;;;;;;;;15.71;35.85;102073.19;5016319;28;20373;-57
2022/05/01 10:24:42;;;;;;;;;;;;;;;15.64;35.99;102072.69;5016015;28;19923;-56
2022/05/01 10:27:40;;;;;;;;;;;;;;;15.52;35.59;102065.44;5021246;28;19913;-56
2022/05/01 10:32:55;;;;;;;;;;;;;;;15.34;34.85;102072.66;5026990;28;19919;-56
2022/05/01 10:35:35;;;;;;;;;;;;;;;15.28;35.20;102070.34;5020932;28;19913;-53
2022/05/01 10:38:03;;;;;;;;;;;;;;;15.23;35.66;102071.44;5013951;28;20229;-57
2022/05/01 10:40:33;;;;;;;;;;;;;;;15.18;35.23;102070.88;5017798;28;19921;-53
2022/05/01 10:43:18;;;;;;;;;;;;;;;15.14;34.84;102072.00;5021682;28;20104;-53
2022/05/01 10:45:43;;;;;;;;;;;;;;;15.08;34.93;102069.66;5021618;28;20422;-54
2022/05/01 10:48:10;;;;;;;;;;;;;;;15.04;35.07;102062.84;5020406;28;19917;-56
2022/05/01 10:50:35;;;;;;;;;;;;;;;15.03;35.42;102063.78;5022709;28;20049;-54
2022/05/01 10:53:14;;;;;;;;;;;;;;;15.03;35.15;102066.44;5014734;28;20036;-57
2022/05/01 10:55:48;;;;;;;;;;;;;;;15.05;35.33;102056.59;5018550;28;19917;-53
2022/05/01 10:58:20;;;;;;;;;;;;;;;15.10;35.20;102062.47;5022323;28;19967;-56
2022/05/01 11:00:46;;;;;;;;;;;;;;;15.09;35.04;102058.13;5019568;28;19917;-55
2022/05/01 11:03:41;;;;;;;;;;;;;;;15.12;35.19;102050.00;5020059;28;19921;-54
2022/05/01 11:06:08;;;;;;;;;;;;;;;15.18;35.19;102054.97;4984490;28;19916;-56
2022/05/01 11:08:36;;;;;;;;;;;;;;;15.25;35.05;102055.47;5022070;28;19920;-56
2022/05/01 11:11:02;;;;;;;;;;;;;;;15.31;35.27;102051.63;5023795;28;19925;-56
2022/05/01 11:13:31;;;;;;;;;;;;;;;15.37;34.88;102048.59;5021923;28;19917;-56
2022/05/01 11:15:57;;;;;;;;;;;;;;;15.44;35.01;102055.28;5021178;28;19916;-56
2022/05/01 11:18:35;;;;;;;;;;;;;;;15.50;35.11;102054.91;5029083;28;19913;-53
2022/05/01 11:21:19;;;;;;;;;;;;;;;15.59;34.31;102052.69;5022015;28;20395;-55
2022/05/01 11:23:44;;;;;;;;;;;;;;;15.66;34.61;102052.22;5022098;28;19928;-53
2022/05/01 11:26:11;;;;;;;;;;;;;;;15.74;34.58;102042.94;5027871;28;19917;-55
2022/05/01 11:28:52;;;;;;;;;;;;;;;15.79;34.11;102044.41;5018049;28;19931;-53
2022/05/01 11:31:36;;;;;;;;;;;;;;;15.83;34.22;102040.59;5025486;28;19927;-53
2022/05/01 11:34:17;;;;;;;;;;;;;;;15.92;33.96;102044.53;5026078;28;19959;-56
2022/05/01 11:37:01;;;;;;;;;;;;;;;16.00;34.22;102052.06;5027156;28;20355;-56
2022/05/01 11:39:45;;;;;;;;;;;;;;;16.09;34.22;102045.34;5026493;28;19924;-55
2022/05/01 11:42:23;;;;;;;;;;;;;;;16.11;34.19;102046.94;5024347;28;19940;-56
2022/05/01 11:44:48;;;;;;;;;;;;;;;16.10;33.90;102045.25;5027836;28;20258;-55
2022/05/01 11:47:14;;;;;;;;;;;;;;;16.11;34.12;102044.28;5021401;28;20688;-55
2022/05/01 11:49:42;;;;;;;;;;;;;;;16.19;34.13;102042.97;5022508;28;20004;-56
2022/05/01 11:52:07;;;;;;;;;;;;;;;16.24;34.02;102049.72;5015794;28;19935;-56
2022/05/01 11:54:35;;;;;;;;;;;;;;;16.26;33.58;102039.84;5024254;28;20349;-53
2022/05/01 12:02:31;;;;;;;;;;;;;;;16.22;33.38;102037.50;5021975;28;20434;-56
2022/05/01 12:05:04;;;;;;;;;;;;;;;16.20;33.62;102034.06;5022206;28;19921;-54
2022/05/01 12:07:29;;;;;;;;;;;;;;;16.18;33.48;102033.31;5027574;28;19913;-56
2022/05/01 12:09:55;;;;;;;;;;;;;;;16.23;33.82;102031.22;5026607;28;19924;-55
2022/05/01 12:12:20;;;;;;;;;;;;;;;16.32;34.07;102030.66;5021887;28;19917;-56
2022/05/01 12:14:47;;;;;;;;;;;;;;;16.41;33.96;102030.06;5015118;28;19917;-55
2022/05/01 12:17:16;;;;;;;;;;;;;;;16.50;33.88;102038.44;5021296;28;19928;-54
2022/05/01 12:19:43;;;;;;;;;;;;;;;16.49;33.62;102028.75;5025660;28;20583;-55
2022/05/01 12:22:10;;;;;;;;;;;;;;;16.44;33.60;102023.75;5016122;28;19921;-53
2022/05/01 12:24:35;;;;;;;;;;;;;;;16.44;33.89;102029.06;5007368;28;19917;-57
2022/05/01 12:27:01;;;;;;;;;;;;;;;16.43;33.87;102016.72;5020092;28;19974;-53
2022/05/01 12:29:28;;;;;;;;;;;;;;;16.45;34.01;102020.97;5023455;28;19917;-56
2022/05/01 12:31:54;;;;;;;;;;;;;;;16.45;34.07;102026.28;5024564;28;19917;-56
2022/05/01 12:34:23;;;;;;;;;;;;;;;16.44;34.15;102031.72;5023638;28;19924;-54
2022/05/01 12:36:56;;;;;;;;;;;;;;;16.42;34.39;102023.81;5022653;28;19978;-55
2022/05/01 12:39:24;;;;;;;;;;;;;;;16.40;34.41;102027.53;5018298;28;19925;-53
2022/05/01 12:45:19;;;;;;;;;;;;;;;16.28;34.81;102016.72;5020075;28;19928;-52
2022/05/01 12:47:48;;;;;;;;;;;;;;;16.24;34.85;102012.53;4989291;28;20419;-53
2022/05/01 12:50:19;;;;;;;;;;;;;;;16.23;35.20;102010.00;5015736;28;19925;-53
2022/05/01 12:52:54;;;;;;;;;;;;;;;16.25;35.35;102011.59;5023984;28;19920;-54
2022/05/01 12:55:20;;;;;;;;;;;;;;;16.20;35.25;102012.81;5022592;28;20349;-54
2022/05/01 12:57:49;;;;;;;;;;;;;;;16.11;35.43;102017.72;5021575;28;19921;-53
2022/05/01 13:00:32;;;;;;;;;;;;;;;15.99;35.67;102013.19;5018401;28;19925;-54
2022/05/01 13:02:59;;;;;;;;;;;;;;;15.90;35.92;102016.41;5014433;28;20335;-55
2022/05/01 13:05:24;;;;;;;;;;;;;;;15.84;36.15;102009.63;5027684;28;20404;-56
2022/05/01 13:07:50;;;;;;;;;;;;;;;15.76;36.30;102009.22;5016965;28;19972;-55
2022/05/01 13:10:18;;;;;;;;;;;;;;;15.73;36.38;102006.78;5005419;28;20019;-54
2022/05/01 13:12:55;;;;;;;;;;;;;;;15.70;36.70;102008.66;5020644;28;20020;-53